createdAt,value
2023-05-15T00:00:57.832Z,95951.75
2023-05-15T00:03:31.357Z,95940.56
2023-05-15T00:06:04.594Z,95940.56
2023-05-15T00:08:37.461Z,95934.41
2023-05-15T00:11:11.882Z,95932.06
2023-05-15T00:13:45.026Z,95931.69
2023-05-15T00:16:18.274Z,95935.06
2023-05-15T00:18:51.524Z,95944.25
2023-05-15T00:21:24.237Z,95940.00
2023-05-15T00:23:58.482Z,95934.19
2023-05-15T00:26:32.742Z,95935.72
2023-05-15T00:29:05.537Z,95933.41
2023-05-15T00:31:38.637Z,95937.63
2023-05-15T00:34:11.728Z,95935.72
2023-05-15T00:36:45.123Z,95932.72
2023-05-15T00:39:18.332Z,95935.41
2023-05-15T00:41:53.615Z,95931.25
2023-05-15T00:44:27.891Z,95937.41
2023-05-15T00:47:00.799Z,95937.81
2023-05-15T00:49:36.193Z,95934.38
2023-05-15T00:52:09.076Z,95942.03
2023-05-15T00:54:42.331Z,95937.44
2023-05-15T00:57:17.599Z,95931.38
2023-05-15T00:59:51.070Z,95941.00
2023-05-15T01:02:23.924Z,95932.16
2023-05-15T01:04:56.869Z,95929.53
2023-05-15T01:07:31.855Z,95939.50
2023-05-15T01:10:04.840Z,95932.97
2023-05-15T01:12:41.480Z,95938.00
2023-05-15T01:15:14.439Z,95935.31
2023-05-15T01:17:47.646Z,95934.19
2023-05-15T01:20:21.717Z,95937.66
2023-05-15T01:23:06.263Z,95928.47
2023-05-15T01:26:03.068Z,95938.09
2023-05-15T01:28:40.228Z,95931.94
2023-05-15T01:31:17.695Z,95934.63
2023-05-15T01:33:55.690Z,95933.50
2023-05-15T01:36:34.551Z,95920.06
2023-05-15T01:39:08.749Z,95922.75
2023-05-15T01:41:44.116Z,95926.56
2023-05-15T01:44:20.381Z,95928.13
2023-05-15T01:46:56.986Z,95920.75
2023-05-15T01:49:32.193Z,95931.94
2023-05-15T01:52:08.268Z,95924.56
2023-05-15T01:54:41.719Z,95919.56
2023-05-15T01:57:16.641Z,95925.31
2023-05-15T01:59:52.055Z,95928.34
2023-05-15T02:02:25.293Z,95919.06
2023-05-15T02:04:59.375Z,95923.25
2023-05-15T02:07:33.124Z,95922.06
2023-05-15T02:10:07.191Z,95917.41
2023-05-15T02:12:41.099Z,95921.53
2023-05-15T02:15:15.375Z,95911.50
2023-05-15T02:17:48.834Z,95902.59
2023-05-15T02:20:22.213Z,95896.03
2023-05-15T02:22:55.644Z,95899.09
2023-05-15T02:25:34.312Z,95909.41
2023-05-15T02:28:08.427Z,95895.91
2023-05-15T02:30:47.736Z,95894.69
2023-05-15T02:33:23.320Z,95903.13
2023-05-15T02:35:58.873Z,95903.03
2023-05-15T02:38:34.503Z,95897.66
2023-05-15T02:41:08.038Z,95906.03
2023-05-15T02:43:41.563Z,95899.44
2023-05-15T02:46:16.346Z,95888.28
2023-05-15T02:48:50.076Z,95892.44
2023-05-15T02:51:23.317Z,95888.56
2023-05-15T02:53:56.308Z,95887.72
2023-05-15T02:56:29.198Z,95889.97
2023-05-15T02:59:02.663Z,95899.44
2023-05-15T03:01:37.496Z,95897.03
2023-05-15T03:04:11.003Z,95889.19
2023-05-15T03:06:44.257Z,95890.56
2023-05-15T03:09:18.459Z,95886.97
2023-05-15T03:11:52.257Z,95885.69
2023-05-15T03:14:25.347Z,95884.78
2023-05-15T03:16:59.929Z,95889.66
2023-05-15T03:19:32.988Z,95895.25
2023-05-15T03:22:06.314Z,95899.34
2023-05-15T03:24:39.160Z,95893.03
2023-05-15T03:27:12.120Z,95896.75
2023-05-15T03:29:45.244Z,95905.38
2023-05-15T03:32:20.232Z,95902.59
2023-05-15T03:34:53.131Z,95898.97
2023-05-15T03:37:26.536Z,95908.16
2023-05-15T03:39:59.556Z,95909.97
2023-05-15T03:42:32.673Z,95904.13
2023-05-15T03:45:06.115Z,95901.78
2023-05-15T03:47:40.763Z,95898.66
2023-05-15T03:50:14.397Z,95909.03
2023-05-15T03:52:47.575Z,95900.66
2023-05-15T03:55:20.828Z,95912.56
2023-05-15T03:57:55.389Z,95915.78
2023-05-15T04:00:28.225Z,95914.72
2023-05-15T04:03:02.812Z,95918.69
2023-05-15T04:05:36.385Z,95912.31
2023-05-15T04:08:11.409Z,95913.28
2023-05-15T04:10:44.634Z,95911.47
2023-05-15T04:13:17.616Z,95908.16
2023-05-15T04:15:51.054Z,95904.00
2023-05-15T04:18:25.552Z,95909.88
2023-05-15T04:20:58.378Z,95912.63
2023-05-15T04:23:31.481Z,95913.84
2023-05-15T04:26:04.457Z,95918.16
2023-05-15T04:28:37.556Z,95914.78
2023-05-15T04:31:10.654Z,95916.31
2023-05-15T04:33:45.308Z,95914.84
2023-05-15T04:36:18.480Z,95925.31
2023-05-15T04:38:51.811Z,95921.94
2023-05-15T04:41:24.765Z,95922.03
2023-05-15T04:43:58.215Z,95918.19
2023-05-15T04:46:35.137Z,95915.25
2023-05-15T04:49:09.794Z,95921.88
2023-05-15T04:51:43.382Z,95922.38
2023-05-15T04:54:16.358Z,95918.66
2023-05-15T04:56:49.370Z,95918.72
2023-05-15T04:59:22.562Z,95924.59
2023-05-15T05:01:55.956Z,95919.00
2023-05-15T05:04:30.818Z,95924.94
2023-05-15T05:07:05.917Z,95923.94
2023-05-15T05:09:39.609Z,95918.38
2023-05-15T05:12:13.155Z,95933.16
2023-05-15T05:14:46.092Z,95929.53
2023-05-15T05:17:19.165Z,95928.59
2023-05-15T05:19:53.807Z,95926.53
2023-05-15T05:22:26.831Z,95929.88
2023-05-15T05:24:59.694Z,95932.84
2023-05-15T05:27:32.603Z,95933.53
2023-05-15T05:30:06.076Z,95930.84
2023-05-15T05:32:39.648Z,95935.72
2023-05-15T05:35:14.062Z,95938.31
2023-05-15T05:37:47.482Z,95946.59
2023-05-15T05:40:20.246Z,95946.03
2023-05-15T05:42:53.062Z,95951.16
2023-05-15T05:45:26.133Z,95955.13
2023-05-15T05:48:00.222Z,95949.03
2023-05-15T05:50:34.754Z,95946.78
2023-05-15T05:53:07.633Z,95948.31
2023-05-15T05:55:40.398Z,95950.69
2023-05-15T05:58:18.362Z,95950.69
2023-05-15T06:00:57.778Z,95954.50
2023-05-15T06:03:31.756Z,95965.28
2023-05-15T06:06:07.658Z,95956.78
2023-05-15T06:08:40.684Z,95966.03
2023-05-15T06:11:13.818Z,95962.91
2023-05-15T06:13:46.928Z,95967.47
2023-05-15T06:16:19.840Z,95972.06
2023-05-15T06:18:53.218Z,95972.00
2023-05-15T06:21:27.570Z,95977.72
2023-05-15T06:24:00.784Z,95984.59
2023-05-15T06:26:33.702Z,95986.47
2023-05-15T06:29:06.873Z,95988.72
2023-05-15T06:31:40.336Z,95985.53
2023-05-15T06:34:13.213Z,95990.47
2023-05-15T06:36:47.799Z,95991.94
2023-05-15T06:39:20.920Z,95990.31
2023-05-15T06:41:58.437Z,95981.38
2023-05-15T06:44:31.754Z,95979.78
2023-05-15T06:47:05.501Z,95988.16
2023-05-15T06:49:38.501Z,95995.44
2023-05-15T06:52:13.574Z,95995.72
2023-05-15T06:54:47.137Z,95990.66
2023-05-15T06:57:21.133Z,95986.34
2023-05-15T06:59:54.312Z,95998.22
2023-05-15T07:02:27.616Z,95995.88
2023-05-15T07:05:00.638Z,95996.19
2023-05-15T07:07:35.458Z,96001.13
2023-05-15T07:10:09.374Z,96006.44
2023-05-15T07:12:42.542Z,96012.56
2023-05-15T07:15:18.097Z,96008.25
2023-05-15T07:17:51.704Z,96011.25
2023-05-15T07:20:27.216Z,96004.63
2023-05-15T07:23:04.212Z,96004.47
2023-05-15T07:25:37.566Z,95995.94
2023-05-15T07:28:11.380Z,95991.66
2023-05-15T07:30:44.823Z,95995.03
2023-05-15T07:33:17.980Z,96000.00
2023-05-15T07:35:52.298Z,95998.00
2023-05-15T07:38:26.895Z,95996.47
2023-05-15T07:41:00.381Z,95997.25
2023-05-15T07:43:33.581Z,95997.66
2023-05-15T07:46:06.873Z,96010.41
2023-05-15T07:48:40.238Z,95999.28
2023-05-15T07:51:13.997Z,95983.19
2023-05-15T07:53:48.836Z,95986.38
2023-05-15T07:56:21.854Z,95991.09
2023-05-15T07:58:55.060Z,95994.31
2023-05-15T08:01:29.041Z,95983.34
2023-05-15T08:04:03.205Z,95980.16
2023-05-15T08:06:37.543Z,95979.22
2023-05-15T08:09:13.237Z,95982.88
2023-05-15T08:11:46.365Z,95976.50
2023-05-15T08:14:19.637Z,95971.25
2023-05-15T08:16:52.963Z,95978.72
2023-05-15T08:19:25.874Z,95978.78
2023-05-15T08:21:58.857Z,95983.47
2023-05-15T08:24:33.595Z,95981.22
2023-05-15T08:27:06.789Z,95972.06
2023-05-15T08:29:40.225Z,95980.94
2023-05-15T08:32:13.219Z,95983.34
2023-05-15T08:34:46.205Z,95974.94
2023-05-15T08:37:19.009Z,95979.22
2023-05-15T08:39:54.027Z,95980.41
2023-05-15T08:42:34.191Z,95979.31
2023-05-15T08:45:08.267Z,95975.50
2023-05-15T08:47:42.340Z,95975.94
2023-05-15T08:50:16.865Z,95972.53
2023-05-15T08:52:51.641Z,95965.72
2023-05-15T08:55:27.140Z,95976.97
2023-05-15T08:58:00.624Z,95978.94
2023-05-15T09:00:35.095Z,95980.56
2023-05-15T09:03:08.390Z,95977.91
2023-05-15T09:05:41.889Z,95984.91
2023-05-15T09:08:16.871Z,95985.38
2023-05-15T09:10:53.595Z,95981.91
2023-05-15T09:13:26.816Z,95978.88
2023-05-15T09:15:59.505Z,95970.78
2023-05-15T09:18:34.334Z,95968.56
2023-05-15T09:21:26.844Z,95970.16
2023-05-15T09:24:17.258Z,95969.84
2023-05-15T09:27:03.184Z,95968.00
2023-05-15T09:29:37.497Z,95965.41
2023-05-15T09:32:11.470Z,95965.09
2023-05-15T09:34:45.757Z,95966.69
2023-05-15T09:37:29.657Z,95972.56
2023-05-15T09:40:09.663Z,95971.44
2023-05-15T09:42:43.989Z,95966.44
2023-05-15T09:45:19.298Z,95961.03
2023-05-15T09:47:52.275Z,95969.97
2023-05-15T09:50:26.133Z,95971.13
2023-05-15T09:53:00.818Z,95967.66
2023-05-15T09:55:35.332Z,95963.41
2023-05-15T09:58:11.287Z,95971.16
2023-05-15T10:00:48.271Z,95967.28
2023-05-15T10:03:22.918Z,95961.88
2023-05-15T10:06:00.587Z,95964.97
2023-05-15T10:08:34.515Z,95958.41
2023-05-15T10:11:07.622Z,95956.09
2023-05-15T10:13:41.700Z,95948.72
2023-05-15T10:16:15.556Z,95950.66
2023-05-15T10:18:49.131Z,95935.19
2023-05-15T10:21:23.871Z,95933.63
2023-05-15T10:23:58.275Z,95935.19
2023-05-15T10:26:33.955Z,95936.72
2023-05-15T10:29:09.731Z,95932.09
2023-05-15T10:31:43.355Z,95933.22
2023-05-15T10:34:16.456Z,95925.09
2023-05-15T10:36:51.033Z,95917.34
2023-05-15T10:39:24.498Z,95920.03
2023-05-15T10:41:57.921Z,95916.50
2023-05-15T10:44:32.144Z,95923.03
2023-05-15T10:47:06.264Z,95915.63
2023-05-15T10:49:39.381Z,95909.72
2023-05-15T10:52:12.142Z,95904.97
2023-05-15T10:54:45.085Z,95898.69
2023-05-15T10:57:17.903Z,95901.69
2023-05-15T10:59:52.667Z,95901.63
2023-05-15T11:02:26.729Z,95901.50
2023-05-15T11:05:00.232Z,95893.28
2023-05-15T11:07:33.095Z,95888.53
2023-05-15T11:10:29.306Z,95893.50
2023-05-15T11:13:03.058Z,95894.19
2023-05-15T11:15:44.786Z,95887.13
2023-05-15T11:18:17.684Z,95888.59
2023-05-15T11:21:11.321Z,95886.56
2023-05-15T11:23:44.073Z,95882.94
2023-05-15T11:26:16.805Z,95875.78
2023-05-15T11:28:49.723Z,95883.81
2023-05-15T11:31:30.780Z,95877.88
2023-05-15T11:34:06.638Z,95872.34
2023-05-15T11:36:39.972Z,95872.25
2023-05-15T11:39:12.981Z,95870.97
2023-05-15T11:41:45.751Z,95868.50
2023-05-15T11:44:21.056Z,95867.19
2023-05-15T11:46:56.380Z,95854.22
2023-05-15T11:49:29.719Z,95854.44
2023-05-15T11:52:02.473Z,95851.63
2023-05-15T11:54:35.221Z,95849.94
2023-05-15T11:57:08.833Z,95845.56
2023-05-15T11:59:41.625Z,95852.50
2023-05-15T12:02:17.655Z,95850.09
2023-05-15T12:04:51.295Z,95853.19
2023-05-15T12:07:24.143Z,95853.59
2023-05-15T12:09:56.949Z,95855.91
2023-05-15T12:12:29.686Z,95853.19
2023-05-15T12:15:03.094Z,95844.25
2023-05-15T12:17:37.449Z,95845.88
2023-05-15T12:20:12.439Z,95859.53
2023-05-15T12:22:45.512Z,95855.00
2023-05-15T12:25:18.250Z,95850.44
2023-05-15T12:27:51.107Z,95850.53
2023-05-15T12:30:24.422Z,95858.41
2023-05-15T12:33:00.239Z,95861.25
2023-05-15T12:35:34.600Z,95849.28
2023-05-15T12:38:07.418Z,95844.69
2023-05-15T12:40:40.264Z,95842.06
2023-05-15T12:43:14.254Z,95837.88
2023-05-15T12:45:47.146Z,95843.72
2023-05-15T12:48:21.770Z,95839.84
2023-05-15T12:50:54.720Z,95842.16
2023-05-15T12:53:27.394Z,95834.41
2023-05-15T12:56:00.144Z,95828.19
2023-05-15T12:58:32.864Z,95832.47
2023-05-15T13:01:05.621Z,95823.91
2023-05-15T13:03:40.376Z,95826.97
2023-05-15T13:06:13.188Z,95825.81
2023-05-15T13:08:47.738Z,95819.59
2023-05-15T13:11:20.924Z,95830.47
2023-05-15T13:13:55.133Z,95825.81
2023-05-15T13:16:29.974Z,95827.69
2023-05-15T13:19:04.556Z,95834.66
2023-05-15T13:21:37.483Z,95833.91
2023-05-15T13:24:10.807Z,95840.50
2023-05-15T13:26:43.905Z,95856.19
2023-05-15T13:29:16.564Z,95866.91
2023-05-15T13:31:49.327Z,95857.44
2023-05-15T13:34:23.670Z,95878.00
2023-05-15T13:36:56.619Z,95889.69
2023-05-15T13:39:29.474Z,95886.94
2023-05-15T13:42:02.310Z,95891.50
2023-05-15T13:44:35.895Z,95888.25
2023-05-15T13:47:08.767Z,95893.41
2023-05-15T13:49:43.139Z,95886.88
2023-05-15T13:52:16.801Z,95879.50
2023-05-15T13:54:49.633Z,95880.16
2023-05-15T13:57:22.766Z,95872.25
2023-05-15T13:59:55.678Z,95865.06
2023-05-15T14:02:29.569Z,95875.25
2023-05-15T14:05:04.811Z,95877.28
2023-05-15T14:07:37.508Z,95880.50
2023-05-15T14:10:11.256Z,95873.75
2023-05-15T14:12:44.464Z,95877.09
2023-05-15T14:15:18.134Z,95877.72
2023-05-15T14:17:50.974Z,95878.44
2023-05-15T14:20:25.504Z,95878.00
2023-05-15T14:22:59.633Z,95868.81
2023-05-15T14:25:32.399Z,95863.84
2023-05-15T14:28:05.215Z,95860.44
2023-05-15T14:30:38.468Z,95850.88
2023-05-15T14:33:11.336Z,95850.59
2023-05-15T14:35:46.324Z,95850.34
2023-05-15T14:38:19.304Z,95852.00
2023-05-15T14:40:52.424Z,95843.34
2023-05-15T14:43:26.277Z,95844.63
2023-05-15T14:45:59.459Z,95840.09
2023-05-15T14:48:34.031Z,95841.38
2023-05-15T14:51:08.802Z,95833.69
2023-05-15T14:53:41.837Z,95843.78
2023-05-15T14:56:14.930Z,95837.63
2023-05-15T14:58:49.015Z,95849.22
2023-05-15T15:01:21.905Z,95845.00
2023-05-15T15:03:54.857Z,95838.84
2023-05-15T15:06:29.791Z,95835.03
2023-05-15T15:09:02.838Z,95843.53
2023-05-15T15:11:36.831Z,95840.09
2023-05-15T15:14:09.627Z,95843.59
2023-05-15T15:16:44.782Z,95852.16
2023-05-15T15:19:19.848Z,95843.69
2023-05-15T15:21:54.405Z,95852.56
2023-05-15T15:24:28.696Z,95857.25
2023-05-15T15:27:01.374Z,95861.13
2023-05-15T15:29:34.327Z,95862.31
2023-05-15T15:32:07.594Z,95860.41
2023-05-15T15:34:40.827Z,95841.53
2023-05-15T15:37:15.278Z,95840.00
2023-05-15T15:39:49.163Z,95843.88
2023-05-15T15:42:23.101Z,95848.13
2023-05-15T15:44:56.507Z,95841.59
2023-05-15T15:47:32.458Z,95847.38
2023-05-15T15:50:05.733Z,95849.38
2023-05-15T15:52:39.978Z,95847.44
2023-05-15T15:55:12.766Z,95850.47
2023-05-15T15:57:46.178Z,95841.97
2023-05-15T16:00:19.759Z,95843.16
2023-05-15T16:02:53.026Z,95841.56
2023-05-15T16:05:25.957Z,95841.59
2023-05-15T16:08:00.295Z,95841.19
2023-05-15T16:10:33.279Z,95840.41
2023-05-15T16:13:06.328Z,95843.13
2023-05-15T16:15:39.522Z,95848.91
2023-05-15T16:18:12.351Z,95847.72
2023-05-15T16:20:45.172Z,95850.06
2023-05-15T16:23:21.609Z,95850.81
2023-05-15T16:25:54.485Z,95853.50
2023-05-15T16:28:27.285Z,95856.56
2023-05-15T16:31:00.216Z,95865.03
2023-05-15T16:33:33.337Z,95847.66
2023-05-15T16:36:06.922Z,95860.38
2023-05-15T16:38:41.177Z,95859.59
2023-05-15T16:41:14.165Z,95862.66
2023-05-15T16:43:46.832Z,95861.47
2023-05-15T16:46:19.810Z,95864.19
2023-05-15T16:48:52.728Z,95863.78
2023-05-15T16:51:25.494Z,95873.03
2023-05-15T16:53:59.764Z,95874.22
2023-05-15T16:56:32.778Z,95872.28
2023-05-15T16:59:05.726Z,95869.97
2023-05-15T17:01:38.478Z,95873.09
2023-05-15T17:04:11.629Z,95876.19
2023-05-15T17:06:44.572Z,95877.75
2023-05-15T17:09:18.973Z,95878.53
2023-05-15T17:11:51.888Z,95877.41
2023-05-15T17:14:24.944Z,95884.72
2023-05-15T17:16:58.337Z,95886.28
2023-05-15T17:19:31.444Z,95878.19
2023-05-15T17:22:04.547Z,95885.50
2023-05-15T17:24:49.876Z,95888.22
2023-05-15T17:27:23.715Z,95892.47
2023-05-15T17:29:56.752Z,95894.00
2023-05-15T17:32:30.333Z,95892.03
2023-05-15T17:35:05.831Z,95900.16
2023-05-15T17:37:39.070Z,95900.50
2023-05-15T17:40:14.172Z,95898.94
2023-05-15T17:42:47.025Z,95893.88
2023-05-15T17:45:20.404Z,95897.34
2023-05-15T17:47:53.544Z,95893.06
2023-05-15T17:50:26.632Z,95890.75
2023-05-15T17:52:59.890Z,95891.88
2023-05-15T17:55:34.784Z,95892.66
2023-05-15T17:58:07.874Z,95889.50
2023-05-15T18:00:40.774Z,95889.47
2023-05-15T18:03:14.083Z,95895.22
2023-05-15T18:05:47.499Z,95895.22
2023-05-15T18:08:20.497Z,95892.06
2023-05-15T18:10:54.572Z,95900.94
2023-05-15T18:13:27.481Z,95899.34
2023-05-15T18:16:00.337Z,95902.78
2023-05-15T18:18:33.268Z,95906.22
2023-05-15T18:21:06.554Z,95893.44
2023-05-15T18:23:39.278Z,95893.44
2023-05-15T18:26:13.386Z,95901.88
2023-05-15T18:28:46.190Z,95903.00
2023-05-15T18:31:19.269Z,95905.66
2023-05-15T18:33:52.422Z,95907.94
2023-05-15T18:36:25.777Z,95915.63
2023-05-15T18:38:58.538Z,95915.97
2023-05-15T18:41:32.679Z,95917.47
2023-05-15T18:44:05.916Z,95918.22
2023-05-15T18:46:39.034Z,95915.50
2023-05-15T18:49:11.849Z,95911.19
2023-05-15T18:51:44.757Z,95916.97
2023-05-15T18:54:17.781Z,95918.84
2023-05-15T18:56:51.905Z,95924.97
2023-05-15T18:59:24.870Z,95923.41
2023-05-15T19:01:57.742Z,95926.84
2023-05-15T19:04:30.577Z,95926.00
2023-05-15T19:07:03.341Z,95932.13
2023-05-15T19:09:36.303Z,95927.47
2023-05-15T19:12:10.513Z,95937.09
2023-05-15T19:14:43.435Z,95935.88
2023-05-15T19:17:16.192Z,95936.63
2023-05-15T19:19:49.334Z,95939.28
2023-05-15T19:22:22.102Z,95945.03
2023-05-15T19:24:55.291Z,95946.19
2023-05-15T19:27:29.399Z,95947.28
2023-05-15T19:30:04.310Z,95948.03
2023-05-15T19:32:37.274Z,95950.31
2023-05-15T19:35:10.636Z,95960.66
2023-05-15T19:37:43.775Z,95963.72
2023-05-15T19:40:17.150Z,95959.50
2023-05-15T19:42:51.309Z,95957.53
2023-05-15T19:45:24.261Z,95957.88
2023-05-15T19:47:57.429Z,95957.09
2023-05-15T19:50:32.639Z,95963.22
2023-05-15T19:53:06.216Z,95959.00
2023-05-15T19:55:39.164Z,95970.13
2023-05-15T19:58:13.320Z,95965.09
2023-05-15T20:00:46.290Z,95970.06
2023-05-15T20:03:19.674Z,95967.75
2023-05-15T20:05:53.390Z,95980.44
2023-05-15T20:08:26.587Z,95980.03
2023-05-15T20:10:59.281Z,95975.38
2023-05-15T20:13:34.418Z,95975.38
2023-05-15T20:16:10.922Z,95978.78
2023-05-15T20:18:45.333Z,95982.59
2023-05-15T20:21:18.466Z,95975.28
2023-05-15T20:23:51.282Z,95981.44
2023-05-15T20:26:24.416Z,95980.25
2023-05-15T20:28:58.522Z,95977.91
2023-05-15T20:31:31.403Z,95986.34
2023-05-15T20:34:06.055Z,95981.75
2023-05-15T20:36:40.041Z,95976.75
2023-05-15T20:39:14.243Z,95987.91
2023-05-15T20:41:47.238Z,95982.13
2023-05-15T20:44:21.384Z,95987.88
2023-05-15T20:46:54.206Z,95988.66
2023-05-15T20:49:26.971Z,95986.31
2023-05-15T20:51:59.717Z,95985.53
2023-05-15T20:54:32.809Z,95988.59
2023-05-15T20:57:06.772Z,95983.56
2023-05-15T20:59:41.253Z,95978.53
2023-05-15T21:02:14.107Z,95985.84
2023-05-15T21:04:47.112Z,95980.06
2023-05-15T21:07:20.573Z,95979.63
2023-05-15T21:09:53.524Z,95979.22
2023-05-15T21:12:26.663Z,95981.13
2023-05-15T21:15:00.783Z,95980.31
2023-05-15T21:17:33.690Z,95986.06
2023-05-15T21:20:07.217Z,95976.34
2023-05-15T21:22:40.385Z,95981.34
2023-05-15T21:25:13.158Z,95971.66
2023-05-15T21:27:46.006Z,95971.25
2023-05-15T21:30:20.710Z,95976.91
2023-05-15T21:32:53.622Z,95963.78
2023-05-15T21:35:29.068Z,95965.19
2023-05-15T21:38:02.191Z,95971.25
2023-05-15T21:40:34.896Z,95973.81
2023-05-15T21:43:07.720Z,95971.03
2023-05-15T21:45:42.119Z,95976.25
2023-05-15T21:48:15.244Z,95973.06
2023-05-15T21:50:48.220Z,95964.06
2023-05-15T21:53:20.872Z,95965.50
2023-05-15T21:55:55.773Z,95958.81
2023-05-15T21:58:28.822Z,95964.06
2023-05-15T22:01:03.062Z,95959.34
2023-05-15T22:03:35.967Z,95961.19
2023-05-15T22:06:09.203Z,95951.09
2023-05-15T22:08:42.629Z,95952.94
2023-05-15T22:11:15.668Z,95955.91
2023-05-15T22:13:48.458Z,95952.75
2023-05-15T22:16:23.027Z,95950.66
2023-05-15T22:18:56.092Z,95950.16
2023-05-15T22:21:28.808Z,95947.00
2023-05-15T22:24:04.234Z,95943.78
2023-05-15T22:26:36.931Z,95944.44
2023-05-15T22:29:09.752Z,95951.22
2023-05-15T22:31:44.158Z,95955.72
2023-05-15T22:34:17.010Z,95957.13
2023-05-15T22:36:50.942Z,95954.75
2023-05-15T22:39:24.227Z,95950.75
2023-05-15T22:41:57.030Z,95941.88
2023-05-15T22:44:29.864Z,95942.13
2023-05-15T22:47:04.071Z,95940.94
2023-05-15T22:49:37.896Z,95947.69
2023-05-15T22:52:12.954Z,95939.59
2023-05-15T22:54:47.011Z,95948.31
2023-05-15T22:57:19.955Z,95941.00
2023-05-15T22:59:52.815Z,95940.56
2023-05-15T23:02:27.128Z,95935.09
2023-05-15T23:05:00.334Z,95940.13
2023-05-15T23:07:33.152Z,95932.41
2023-05-15T23:10:07.014Z,95934.75
2023-05-15T23:12:40.271Z,95935.53
2023-05-15T23:15:13.524Z,95937.94
2023-05-15T23:17:47.883Z,95938.38
2023-05-15T23:20:20.684Z,95942.69
2023-05-15T23:22:53.742Z,95938.94
2023-05-15T23:25:27.453Z,95945.97
2023-05-15T23:28:00.512Z,95938.75
2023-05-15T23:30:33.936Z,95943.84
2023-05-15T23:33:08.341Z,95949.72
2023-05-15T23:35:41.307Z,95951.34
2023-05-15T23:38:14.135Z,95940.69
2023-05-15T23:40:46.941Z,95941.97
2023-05-15T23:43:19.798Z,95941.25
2023-05-15T23:45:52.938Z,95940.53
2023-05-15T23:48:28.079Z,95929.53
2023-05-15T23:51:01.064Z,95933.06
2023-05-15T23:53:33.767Z,95936.16
2023-05-15T23:56:08.873Z,95935.13
2023-05-15T23:58:41.763Z,95932.09
